sensor_id;sensor_type;location;lat;lon;timestamp;temperature;humidity
16160;DHT22;8185;57.818;15.224;2023-06-14T00:00:36;12.50;99.90
16160;DHT22;8185;57.818;15.224;2023-06-14T00:03:06;12.40;99.90
16160;DHT22;8185;57.818;15.224;2023-06-14T00:05:37;12.20;99.90
16160;DHT22;8185;57.818;15.224;2023-06-14T00:08:09;12.10;99.90
16160;DHT22;8185;57.818;15.224;2023-06-14T00:10:36;12.00;99.90
16160;DHT22;8185;57.818;15.224;2023-06-14T00:13:05;11.90;99.90
16160;DHT22;8185;57.818;15.224;2023-06-14T00:15:33;11.80;99.90
16160;DHT22;8185;57.818;15.224;2023-06-14T00:18:01;11.70;99.90
16160;DHT22;8185;57.818;15.224;2023-06-14T00:20:29;11.60;99.90
16160;DHT22;8185;57.818;15.224;2023-06-14T00:23:04;11.50;99.90
16160;DHT22;8185;57.818;15.224;2023-06-14T00:25:31;11.60;99.90
16160;DHT22;8185;57.818;15.224;2023-06-14T00:27:58;11.90;99.90
16160;DHT22;8185;57.818;15.224;2023-06-14T00:30:25;12.00;99.90
16160;DHT22;8185;57.818;15.224;2023-06-14T00:32:56;11.90;99.90
16160;DHT22;8185;57.818;15.224;2023-06-14T00:35:24;11.90;99.90
16160;DHT22;8185;57.818;15.224;2023-06-14T00:37:51;11.90;99.90
16160;DHT22;8185;57.818;15.224;2023-06-14T00:40:21;11.80;99.90
16160;DHT22;8185;57.818;15.224;2023-06-14T00:42:49;11.70;99.90
16160;DHT22;8185;57.818;15.224;2023-06-14T00:45:16;11.80;99.90
16160;DHT22;8185;57.818;15.224;2023-06-14T00:47:44;11.70;99.90
16160;DHT22;8185;57.818;15.224;2023-06-14T00:50:13;11.60;99.90
16160;DHT22;8185;57.818;15.224;2023-06-14T00:52:40;11.60;99.90
16160;DHT22;8185;57.818;15.224;2023-06-14T00:55:08;11.60;99.90
16160;DHT22;8185;57.818;15.224;2023-06-14T00:57:37;11.60;99.90
16160;DHT22;8185;57.818;15.224;2023-06-14T01:00:06;11.60;99.90
16160;DHT22;8185;57.818;15.224;2023-06-14T01:02:35;11.60;99.90
16160;DHT22;8185;57.818;15.224;2023-06-14T01:05:04;11.80;99.90
16160;DHT22;8185;57.818;15.224;2023-06-14T01:07:38;11.80;99.90
16160;DHT22;8185;57.818;15.224;2023-06-14T01:10:19;11.80;99.90
16160;DHT22;8185;57.818;15.224;2023-06-14T01:12:58;11.80;99.90
16160;DHT22;8185;57.818;15.224;2023-06-14T01:15:27;11.80;99.90
16160;DHT22;8185;57.818;15.224;2023-06-14T01:17:57;11.80;99.90
16160;DHT22;8185;57.818;15.224;2023-06-14T01:20:29;11.80;99.90
16160;DHT22;8185;57.818;15.224;2023-06-14T01:22:58;11.70;99.90
16160;DHT22;8185;57.818;15.224;2023-06-14T01:25:26;11.70;99.90
16160;DHT22;8185;57.818;15.224;2023-06-14T01:27:57;11.40;99.90
16160;DHT22;8185;57.818;15.224;2023-06-14T01:30:25;11.20;99.90
16160;DHT22;8185;57.818;15.224;2023-06-14T01:32:54;11.30;99.90
16160;DHT22;8185;57.818;15.224;2023-06-14T01:35:22;11.40;99.90
16160;DHT22;8185;57.818;15.224;2023-06-14T01:37:52;11.20;99.90
16160;DHT22;8185;57.818;15.224;2023-06-14T01:40:21;11.10;99.90
16160;DHT22;8185;57.818;15.224;2023-06-14T01:42:50;11.30;99.90
16160;DHT22;8185;57.818;15.224;2023-06-14T01:45:18;11.20;99.90
16160;DHT22;8185;57.818;15.224;2023-06-14T01:47:46;11.10;99.90
16160;DHT22;8185;57.818;15.224;2023-06-14T01:50:13;11.00;99.90
16160;DHT22;8185;57.818;15.224;2023-06-14T01:52:41;10.90;99.90
16160;DHT22;8185;57.818;15.224;2023-06-14T01:55:08;10.70;99.90
16160;DHT22;8185;57.818;15.224;2023-06-14T01:57:37;10.50;99.90
16160;DHT22;8185;57.818;15.224;2023-06-14T02:00:05;10.30;99.90
16160;DHT22;8185;57.818;15.224;2023-06-14T02:02:36;10.30;99.90
16160;DHT22;8185;57.818;15.224;2023-06-14T02:05:06;10.50;99.90
16160;DHT22;8185;57.818;15.224;2023-06-14T02:07:34;10.60;99.90
16160;DHT22;8185;57.818;15.224;2023-06-14T02:10:02;10.50;99.90
16160;DHT22;8185;57.818;15.224;2023-06-14T02:12:29;10.20;99.90
16160;DHT22;8185;57.818;15.224;2023-06-14T02:14:58;10.10;99.90
16160;DHT22;8185;57.818;15.224;2023-06-14T02:17:25;10.00;99.90
16160;DHT22;8185;57.818;15.224;2023-06-14T02:19:52;9.80;99.90
16160;DHT22;8185;57.818;15.224;2023-06-14T02:22:19;9.70;99.90
16160;DHT22;8185;57.818;15.224;2023-06-14T02:24:47;10.00;99.90
16160;DHT22;8185;57.818;15.224;2023-06-14T02:27:16;10.20;99.90
16160;DHT22;8185;57.818;15.224;2023-06-14T02:29:43;10.40;99.90
16160;DHT22;8185;57.818;15.224;2023-06-14T02:32:11;10.50;99.90
16160;DHT22;8185;57.818;15.224;2023-06-14T02:34:39;10.60;99.90
16160;DHT22;8185;57.818;15.224;2023-06-14T02:37:07;10.70;99.90
16160;DHT22;8185;57.818;15.224;2023-06-14T02:39:34;10.70;99.90
16160;DHT22;8185;57.818;15.224;2023-06-14T02:42:02;10.80;99.90
16160;DHT22;8185;57.818;15.224;2023-06-14T02:44:29;10.80;99.90
16160;DHT22;8185;57.818;15.224;2023-06-14T02:46:57;10.80;99.90
16160;DHT22;8185;57.818;15.224;2023-06-14T02:49:27;10.80;99.90
16160;DHT22;8185;57.818;15.224;2023-06-14T02:51:55;10.80;99.90
16160;DHT22;8185;57.818;15.224;2023-06-14T02:54:22;10.60;99.90
16160;DHT22;8185;57.818;15.224;2023-06-14T02:56:49;10.50;99.90
16160;DHT22;8185;57.818;15.224;2023-06-14T02:59:18;10.50;99.90
16160;DHT22;8185;57.818;15.224;2023-06-14T03:01:47;10.40;99.90
16160;DHT22;8185;57.818;15.224;2023-06-14T03:04:14;10.30;99.90
16160;DHT22;8185;57.818;15.224;2023-06-14T03:06:43;10.30;99.90
16160;DHT22;8185;57.818;15.224;2023-06-14T03:09:15;10.30;99.90
16160;DHT22;8185;57.818;15.224;2023-06-14T03:11:43;10.30;99.90
16160;DHT22;8185;57.818;15.224;2023-06-14T03:14:10;10.30;99.90
16160;DHT22;8185;57.818;15.224;2023-06-14T03:16:39;10.40;99.90
16160;DHT22;8185;57.818;15.224;2023-06-14T03:19:06;10.40;99.90
16160;DHT22;8185;57.818;15.224;2023-06-14T03:21:34;10.50;99.90
16160;DHT22;8185;57.818;15.224;2023-06-14T03:24:03;10.50;99.90
16160;DHT22;8185;57.818;15.224;2023-06-14T03:26:30;10.50;99.90
16160;DHT22;8185;57.818;15.224;2023-06-14T03:28:59;10.60;99.90
16160;DHT22;8185;57.818;15.224;2023-06-14T03:31:29;10.80;99.90
16160;DHT22;8185;57.818;15.224;2023-06-14T03:33:58;10.90;99.90
16160;DHT22;8185;57.818;15.224;2023-06-14T03:36:25;11.00;99.90
16160;DHT22;8185;57.818;15.224;2023-06-14T03:38:53;11.20;99.90
16160;DHT22;8185;57.818;15.224;2023-06-14T03:41:22;11.20;99.90
16160;DHT22;8185;57.818;15.224;2023-06-14T03:43:49;11.30;99.90
16160;DHT22;8185;57.818;15.224;2023-06-14T03:46:16;11.40;99.90
16160;DHT22;8185;57.818;15.224;2023-06-14T03:48:43;11.50;99.90
16160;DHT22;8185;57.818;15.224;2023-06-14T03:51:11;11.50;99.90
16160;DHT22;8185;57.818;15.224;2023-06-14T03:53:38;11.60;99.90
16160;DHT22;8185;57.818;15.224;2023-06-14T03:56:05;11.70;99.90
16160;DHT22;8185;57.818;15.224;2023-06-14T03:58:34;11.90;99.90
16160;DHT22;8185;57.818;15.224;2023-06-14T04:01:01;12.00;99.90
16160;DHT22;8185;57.818;15.224;2023-06-14T04:03:28;12.10;99.90
16160;DHT22;8185;57.818;15.224;2023-06-14T04:05:56;12.20;99.90
16160;DHT22;8185;57.818;15.224;2023-06-14T04:08:25;12.30;99.90
16160;DHT22;8185;57.818;15.224;2023-06-14T04:10:52;12.40;99.90
16160;DHT22;8185;57.818;15.224;2023-06-14T04:13:20;12.50;99.90
16160;DHT22;8185;57.818;15.224;2023-06-14T04:15:48;12.60;99.90
16160;DHT22;8185;57.818;15.224;2023-06-14T04:18:15;12.70;99.90
16160;DHT22;8185;57.818;15.224;2023-06-14T04:20:43;12.80;99.90
16160;DHT22;8185;57.818;15.224;2023-06-14T04:23:12;12.80;99.90
16160;DHT22;8185;57.818;15.224;2023-06-14T04:25:40;12.90;99.90
16160;DHT22;8185;57.818;15.224;2023-06-14T04:28:11;12.90;99.90
16160;DHT22;8185;57.818;15.224;2023-06-14T04:30:39;13.00;99.90
16160;DHT22;8185;57.818;15.224;2023-06-14T04:33:08;13.10;99.90
16160;DHT22;8185;57.818;15.224;2023-06-14T04:35:36;13.30;99.90
16160;DHT22;8185;57.818;15.224;2023-06-14T04:38:04;13.40;99.90
16160;DHT22;8185;57.818;15.224;2023-06-14T04:40:35;13.50;99.90
16160;DHT22;8185;57.818;15.224;2023-06-14T04:43:08;13.60;99.90
16160;DHT22;8185;57.818;15.224;2023-06-14T04:45:38;13.80;99.90
16160;DHT22;8185;57.818;15.224;2023-06-14T04:48:05;13.80;99.90
16160;DHT22;8185;57.818;15.224;2023-06-14T04:50:34;14.00;99.90
16160;DHT22;8185;57.818;15.224;2023-06-14T04:53:02;14.00;99.90
16160;DHT22;8185;57.818;15.224;2023-06-14T04:55:29;14.10;99.90
16160;DHT22;8185;57.818;15.224;2023-06-14T04:57:56;14.30;99.90
16160;DHT22;8185;57.818;15.224;2023-06-14T05:00:23;14.40;99.90
16160;DHT22;8185;57.818;15.224;2023-06-14T05:02:51;14.40;99.90
16160;DHT22;8185;57.818;15.224;2023-06-14T05:05:19;14.60;99.90
16160;DHT22;8185;57.818;15.224;2023-06-14T05:07:47;14.70;99.90
16160;DHT22;8185;57.818;15.224;2023-06-14T05:10:15;14.90;99.90
16160;DHT22;8185;57.818;15.224;2023-06-14T05:12:42;15.00;99.90
16160;DHT22;8185;57.818;15.224;2023-06-14T05:15:10;15.20;99.90
16160;DHT22;8185;57.818;15.224;2023-06-14T05:17:37;15.30;99.90
16160;DHT22;8185;57.818;15.224;2023-06-14T05:20:07;15.40;99.90
16160;DHT22;8185;57.818;15.224;2023-06-14T05:22:35;15.50;99.90
16160;DHT22;8185;57.818;15.224;2023-06-14T05:25:05;15.60;99.90
16160;DHT22;8185;57.818;15.224;2023-06-14T05:27:34;15.70;99.90
16160;DHT22;8185;57.818;15.224;2023-06-14T05:30:03;15.80;99.90
16160;DHT22;8185;57.818;15.224;2023-06-14T05:32:33;16.00;99.90
16160;DHT22;8185;57.818;15.224;2023-06-14T05:35:00;16.10;99.90
16160;DHT22;8185;57.818;15.224;2023-06-14T05:37:28;16.10;99.90
16160;DHT22;8185;57.818;15.224;2023-06-14T05:39:56;16.30;99.90
16160;DHT22;8185;57.818;15.224;2023-06-14T05:42:25;16.40;99.90
16160;DHT22;8185;57.818;15.224;2023-06-14T05:44:52;16.50;99.90
16160;DHT22;8185;57.818;15.224;2023-06-14T05:47:19;16.50;99.90
16160;DHT22;8185;57.818;15.224;2023-06-14T05:49:46;16.60;99.90
16160;DHT22;8185;57.818;15.224;2023-06-14T05:52:14;16.80;99.90
16160;DHT22;8185;57.818;15.224;2023-06-14T05:54:41;16.80;99.90
16160;DHT22;8185;57.818;15.224;2023-06-14T05:57:08;16.90;99.90
16160;DHT22;8185;57.818;15.224;2023-06-14T05:59:37;17.00;99.90
16160;DHT22;8185;57.818;15.224;2023-06-14T06:02:05;17.10;99.90
16160;DHT22;8185;57.818;15.224;2023-06-14T06:04:32;17.20;99.90
16160;DHT22;8185;57.818;15.224;2023-06-14T06:06:59;17.30;99.90
16160;DHT22;8185;57.818;15.224;2023-06-14T06:09:26;17.40;99.90
16160;DHT22;8185;57.818;15.224;2023-06-14T06:11:54;17.50;99.90
16160;DHT22;8185;57.818;15.224;2023-06-14T06:14:21;17.70;99.90
16160;DHT22;8185;57.818;15.224;2023-06-14T06:16:50;17.80;99.90
16160;DHT22;8185;57.818;15.224;2023-06-14T06:19:18;17.80;99.90
16160;DHT22;8185;57.818;15.224;2023-06-14T06:21:45;17.80;99.90
16160;DHT22;8185;57.818;15.224;2023-06-14T06:24:12;17.80;99.90
16160;DHT22;8185;57.818;15.224;2023-06-14T06:26:39;18.00;99.90
16160;DHT22;8185;57.818;15.224;2023-06-14T06:29:06;18.10;99.90
16160;DHT22;8185;57.818;15.224;2023-06-14T06:31:34;18.20;99.90
16160;DHT22;8185;57.818;15.224;2023-06-14T06:34:02;18.30;99.90
16160;DHT22;8185;57.818;15.224;2023-06-14T06:36:29;18.40;99.90
16160;DHT22;8185;57.818;15.224;2023-06-14T06:38:57;18.60;99.90
16160;DHT22;8185;57.818;15.224;2023-06-14T06:41:24;18.70;99.90
16160;DHT22;8185;57.818;15.224;2023-06-14T06:43:51;18.60;99.90
16160;DHT22;8185;57.818;15.224;2023-06-14T06:46:18;18.80;99.90
16160;DHT22;8185;57.818;15.224;2023-06-14T06:48:45;18.90;99.90
16160;DHT22;8185;57.818;15.224;2023-06-14T06:51:14;19.00;99.90
16160;DHT22;8185;57.818;15.224;2023-06-14T06:53:42;19.00;99.90
16160;DHT22;8185;57.818;15.224;2023-06-14T06:56:10;19.20;99.90
16160;DHT22;8185;57.818;15.224;2023-06-14T06:58:37;19.20;99.90
16160;DHT22;8185;57.818;15.224;2023-06-14T07:01:05;19.10;99.90
16160;DHT22;8185;57.818;15.224;2023-06-14T07:03:32;19.20;99.90
16160;DHT22;8185;57.818;15.224;2023-06-14T07:05:59;19.20;99.90
16160;DHT22;8185;57.818;15.224;2023-06-14T07:08:28;19.30;99.90
16160;DHT22;8185;57.818;15.224;2023-06-14T07:10:55;19.60;99.90
16160;DHT22;8185;57.818;15.224;2023-06-14T07:13:22;19.70;99.90
16160;DHT22;8185;57.818;15.224;2023-06-14T07:15:49;19.80;99.90
16160;DHT22;8185;57.818;15.224;2023-06-14T07:18:19;19.80;99.90
16160;DHT22;8185;57.818;15.224;2023-06-14T07:20:46;19.60;99.90
16160;DHT22;8185;57.818;15.224;2023-06-14T07:23:13;19.70;99.90
16160;DHT22;8185;57.818;15.224;2023-06-14T07:25:42;19.90;99.90
16160;DHT22;8185;57.818;15.224;2023-06-14T07:28:09;20.20;99.90
16160;DHT22;8185;57.818;15.224;2023-06-14T07:30:36;20.30;99.90
16160;DHT22;8185;57.818;15.224;2023-06-14T07:33:04;20.40;99.90
16160;DHT22;8185;57.818;15.224;2023-06-14T07:35:31;20.50;99.90
16160;DHT22;8185;57.818;15.224;2023-06-14T07:37:58;20.60;99.90
16160;DHT22;8185;57.818;15.224;2023-06-14T07:40:26;20.80;99.90
16160;DHT22;8185;57.818;15.224;2023-06-14T07:42:54;21.00;99.90
16160;DHT22;8185;57.818;15.224;2023-06-14T07:45:22;21.40;99.80
16160;DHT22;8185;57.818;15.224;2023-06-14T07:47:49;21.60;99.10
16160;DHT22;8185;57.818;15.224;2023-06-14T07:50:17;21.60;97.60
16160;DHT22;8185;57.818;15.224;2023-06-14T07:52:45;21.70;96.90
16160;DHT22;8185;57.818;15.224;2023-06-14T07:55:12;21.70;94.20
16160;DHT22;8185;57.818;15.224;2023-06-14T07:57:41;21.70;95.60
16160;DHT22;8185;57.818;15.224;2023-06-14T08:00:10;21.90;93.90
16160;DHT22;8185;57.818;15.224;2023-06-14T08:02:41;21.90;89.10
16160;DHT22;8185;57.818;15.224;2023-06-14T08:05:10;21.90;92.00
16160;DHT22;8185;57.818;15.224;2023-06-14T08:07:37;22.00;88.80
16160;DHT22;8185;57.818;15.224;2023-06-14T08:10:06;22.30;83.20
16160;DHT22;8185;57.818;15.224;2023-06-14T08:12:33;22.30;84.80
16160;DHT22;8185;57.818;15.224;2023-06-14T08:15:01;22.50;82.70
16160;DHT22;8185;57.818;15.224;2023-06-14T08:17:29;22.70;82.20
16160;DHT22;8185;57.818;15.224;2023-06-14T08:19:57;22.60;80.10
16160;DHT22;8185;57.818;15.224;2023-06-14T08:22:25;22.50;79.50
16160;DHT22;8185;57.818;15.224;2023-06-14T08:24:53;22.50;79.40
16160;DHT22;8185;57.818;15.224;2023-06-14T08:27:21;22.80;79.40
16160;DHT22;8185;57.818;15.224;2023-06-14T08:29:48;22.60;78.40
16160;DHT22;8185;57.818;15.224;2023-06-14T08:32:16;22.80;79.70
16160;DHT22;8185;57.818;15.224;2023-06-14T08:34:44;23.10;79.20
16160;DHT22;8185;57.818;15.224;2023-06-14T08:37:12;23.40;79.70
16160;DHT22;8185;57.818;15.224;2023-06-14T08:39:40;23.50;77.20
16160;DHT22;8185;57.818;15.224;2023-06-14T08:42:09;23.80;77.40
16160;DHT22;8185;57.818;15.224;2023-06-14T08:44:37;23.80;76.90
16160;DHT22;8185;57.818;15.224;2023-06-14T08:47:06;23.60;74.30
16160;DHT22;8185;57.818;15.224;2023-06-14T08:49:36;23.80;74.70
16160;DHT22;8185;57.818;15.224;2023-06-14T08:52:08;23.70;75.00
16160;DHT22;8185;57.818;15.224;2023-06-14T08:54:41;23.70;74.20
16160;DHT22;8185;57.818;15.224;2023-06-14T08:57:11;23.90;68.90
16160;DHT22;8185;57.818;15.224;2023-06-14T08:59:46;24.00;72.40
16160;DHT22;8185;57.818;15.224;2023-06-14T09:02:15;23.80;71.60
16160;DHT22;8185;57.818;15.224;2023-06-14T09:04:44;24.00;71.50
16160;DHT22;8185;57.818;15.224;2023-06-14T09:07:13;24.20;71.10
16160;DHT22;8185;57.818;15.224;2023-06-14T09:09:41;24.10;69.70
16160;DHT22;8185;57.818;15.224;2023-06-14T09:12:10;24.80;67.60
16160;DHT22;8185;57.818;15.224;2023-06-14T09:14:39;25.20;66.00
16160;DHT22;8185;57.818;15.224;2023-06-14T09:17:09;25.60;63.30
16160;DHT22;8185;57.818;15.224;2023-06-14T09:19:41;26.20;62.30
16160;DHT22;8185;57.818;15.224;2023-06-14T09:22:12;26.50;61.20
16160;DHT22;8185;57.818;15.224;2023-06-14T09:24:41;26.70;60.50
16160;DHT22;8185;57.818;15.224;2023-06-14T09:27:15;26.70;59.00
16160;DHT22;8185;57.818;15.224;2023-06-14T09:29:43;26.90;58.20
16160;DHT22;8185;57.818;15.224;2023-06-14T09:32:11;26.70;56.40
16160;DHT22;8185;57.818;15.224;2023-06-14T09:34:40;26.80;58.70
16160;DHT22;8185;57.818;15.224;2023-06-14T09:37:08;27.20;57.50
16160;DHT22;8185;57.818;15.224;2023-06-14T09:39:49;27.30;55.00
16160;DHT22;8185;57.818;15.224;2023-06-14T09:42:18;26.80;56.70
16160;DHT22;8185;57.818;15.224;2023-06-14T09:44:48;26.90;56.10
16160;DHT22;8185;57.818;15.224;2023-06-14T09:47:16;27.10;56.60
16160;DHT22;8185;57.818;15.224;2023-06-14T09:49:45;27.10;54.90
16160;DHT22;8185;57.818;15.224;2023-06-14T09:52:17;27.20;57.80
16160;DHT22;8185;57.818;15.224;2023-06-14T09:54:48;27.70;56.40
16160;DHT22;8185;57.818;15.224;2023-06-14T09:57:21;27.40;54.10
16160;DHT22;8185;57.818;15.224;2023-06-14T09:59:53;27.90;54.40
16160;DHT22;8185;57.818;15.224;2023-06-14T10:02:24;27.60;53.00
16160;DHT22;8185;57.818;15.224;2023-06-14T10:04:58;27.60;52.50
16160;DHT22;8185;57.818;15.224;2023-06-14T10:07:31;27.90;51.40
16160;DHT22;8185;57.818;15.224;2023-06-14T10:10:02;28.20;52.00
16160;DHT22;8185;57.818;15.224;2023-06-14T10:12:31;28.30;51.90
16160;DHT22;8185;57.818;15.224;2023-06-14T10:15:00;27.80;50.40
16160;DHT22;8185;57.818;15.224;2023-06-14T10:17:35;28.40;53.00
16160;DHT22;8185;57.818;15.224;2023-06-14T10:20:18;28.20;51.10
16160;DHT22;8185;57.818;15.224;2023-06-14T10:22:51;27.90;51.30
16160;DHT22;8185;57.818;15.224;2023-06-14T10:25:28;28.10;50.60
16160;DHT22;8185;57.818;15.224;2023-06-14T10:28:15;28.20;51.60
16160;DHT22;8185;57.818;15.224;2023-06-14T10:31:06;29.00;52.30
16160;DHT22;8185;57.818;15.224;2023-06-14T10:33:35;28.80;50.40
16160;DHT22;8185;57.818;15.224;2023-06-14T10:36:26;28.90;46.60
16160;DHT22;8185;57.818;15.224;2023-06-14T10:39:05;28.90;47.20
16160;DHT22;8185;57.818;15.224;2023-06-14T10:41:37;29.30;47.60
16160;DHT22;8185;57.818;15.224;2023-06-14T10:47:25;29.50;45.60
16160;DHT22;8185;57.818;15.224;2023-06-14T10:49:54;29.90;47.00
16160;DHT22;8185;57.818;15.224;2023-06-14T10:52:25;29.80;46.40
16160;DHT22;8185;57.818;15.224;2023-06-14T10:55:10;30.50;48.20
16160;DHT22;8185;57.818;15.224;2023-06-14T10:57:41;30.10;46.30
16160;DHT22;8185;57.818;15.224;2023-06-14T11:00:13;30.50;46.90
16160;DHT22;8185;57.818;15.224;2023-06-14T11:03:41;30.90;46.80
16160;DHT22;8185;57.818;15.224;2023-06-14T11:06:14;31.30;48.60
16160;DHT22;8185;57.818;15.224;2023-06-14T11:09:11;31.60;47.40
16160;DHT22;8185;57.818;15.224;2023-06-14T11:11:46;31.80;47.20
16160;DHT22;8185;57.818;15.224;2023-06-14T11:14:16;32.30;46.30
16160;DHT22;8185;57.818;15.224;2023-06-14T11:16:48;32.00;46.60
16160;DHT22;8185;57.818;15.224;2023-06-14T11:19:16;31.50;46.70
16160;DHT22;8185;57.818;15.224;2023-06-14T11:21:47;31.40;47.80
16160;DHT22;8185;57.818;15.224;2023-06-14T11:24:17;31.30;46.40
16160;DHT22;8185;57.818;15.224;2023-06-14T11:26:46;31.40;46.60
16160;DHT22;8185;57.818;15.224;2023-06-14T11:29:16;31.00;46.90
16160;DHT22;8185;57.818;15.224;2023-06-14T11:31:45;31.10;49.20
16160;DHT22;8185;57.818;15.224;2023-06-14T11:34:12;31.70;47.10
16160;DHT22;8185;57.818;15.224;2023-06-14T11:36:40;32.60;47.10
16160;DHT22;8185;57.818;15.224;2023-06-14T11:39:08;31.80;47.20
16160;DHT22;8185;57.818;15.224;2023-06-14T11:41:38;31.50;47.50
16160;DHT22;8185;57.818;15.224;2023-06-14T11:44:07;32.10;47.20
16160;DHT22;8185;57.818;15.224;2023-06-14T11:46:36;31.90;48.40
16160;DHT22;8185;57.818;15.224;2023-06-14T11:49:05;32.40;48.10
16160;DHT22;8185;57.818;15.224;2023-06-14T11:51:36;32.50;47.40
16160;DHT22;8185;57.818;15.224;2023-06-14T11:54:06;30.30;47.70
16160;DHT22;8185;57.818;15.224;2023-06-14T11:56:36;29.50;48.60
16160;DHT22;8185;57.818;15.224;2023-06-14T11:59:04;29.40;49.50
16160;DHT22;8185;57.818;15.224;2023-06-14T12:01:32;28.80;49.60
16160;DHT22;8185;57.818;15.224;2023-06-14T12:04:01;28.90;50.70
16160;DHT22;8185;57.818;15.224;2023-06-14T12:06:31;29.80;49.00
16160;DHT22;8185;57.818;15.224;2023-06-14T12:09:06;31.10;49.00
16160;DHT22;8185;57.818;15.224;2023-06-14T12:11:38;31.80;48.10
16160;DHT22;8185;57.818;15.224;2023-06-14T12:14:08;30.70;48.80
16160;DHT22;8185;57.818;15.224;2023-06-14T12:16:39;29.40;50.00
16160;DHT22;8185;57.818;15.224;2023-06-14T12:19:13;28.60;50.60
16160;DHT22;8185;57.818;15.224;2023-06-14T12:21:42;28.80;51.40
16160;DHT22;8185;57.818;15.224;2023-06-14T12:24:12;28.90;51.80
16160;DHT22;8185;57.818;15.224;2023-06-14T12:26:41;29.30;51.80
16160;DHT22;8185;57.818;15.224;2023-06-14T12:29:09;28.60;50.90
16160;DHT22;8185;57.818;15.224;2023-06-14T12:31:38;29.60;52.30
16160;DHT22;8185;57.818;15.224;2023-06-14T12:34:07;29.70;49.60
16160;DHT22;8185;57.818;15.224;2023-06-14T12:36:37;31.10;49.30
16160;DHT22;8185;57.818;15.224;2023-06-14T12:39:09;30.60;49.20
16160;DHT22;8185;57.818;15.224;2023-06-14T12:41:37;30.20;48.30
16160;DHT22;8185;57.818;15.224;2023-06-14T12:44:08;30.60;48.80
16160;DHT22;8185;57.818;15.224;2023-06-14T12:46:36;29.80;48.50
16160;DHT22;8185;57.818;15.224;2023-06-14T12:49:07;29.00;49.50
16160;DHT22;8185;57.818;15.224;2023-06-14T12:51:37;28.60;51.50
16160;DHT22;8185;57.818;15.224;2023-06-14T12:54:04;29.20;51.40
16160;DHT22;8185;57.818;15.224;2023-06-14T12:56:32;30.00;50.90
16160;DHT22;8185;57.818;15.224;2023-06-14T12:59:00;30.60;48.30
16160;DHT22;8185;57.818;15.224;2023-06-14T13:01:28;31.00;49.00
16160;DHT22;8185;57.818;15.224;2023-06-14T13:03:56;32.20;48.30
16160;DHT22;8185;57.818;15.224;2023-06-14T13:06:23;31.90;46.10
16160;DHT22;8185;57.818;15.224;2023-06-14T13:08:53;32.40;47.40
16160;DHT22;8185;57.818;15.224;2023-06-14T13:11:24;32.00;48.00
16160;DHT22;8185;57.818;15.224;2023-06-14T13:13:57;31.30;47.80
16160;DHT22;8185;57.818;15.224;2023-06-14T13:16:27;31.30;49.10
16160;DHT22;8185;57.818;15.224;2023-06-14T13:18:55;32.00;48.40
16160;DHT22;8185;57.818;15.224;2023-06-14T13:21:23;33.90;46.50
16160;DHT22;8185;57.818;15.224;2023-06-14T13:23:53;33.20;46.40
16160;DHT22;8185;57.818;15.224;2023-06-14T13:26:21;33.00;45.80
16160;DHT22;8185;57.818;15.224;2023-06-14T13:28:51;33.90;46.30
16160;DHT22;8185;57.818;15.224;2023-06-14T13:31:19;33.70;46.80
16160;DHT22;8185;57.818;15.224;2023-06-14T13:33:47;33.30;45.90
16160;DHT22;8185;57.818;15.224;2023-06-14T13:36:16;32.50;45.30
16160;DHT22;8185;57.818;15.224;2023-06-14T13:38:44;32.80;46.60
16160;DHT22;8185;57.818;15.224;2023-06-14T13:41:13;33.80;46.00
16160;DHT22;8185;57.818;15.224;2023-06-14T13:43:41;34.50;46.80
16160;DHT22;8185;57.818;15.224;2023-06-14T13:46:09;33.40;44.80
16160;DHT22;8185;57.818;15.224;2023-06-14T13:48:40;32.10;45.70
16160;DHT22;8185;57.818;15.224;2023-06-14T13:51:08;30.00;47.40
16160;DHT22;8185;57.818;15.224;2023-06-14T13:53:38;29.30;50.00
16160;DHT22;8185;57.818;15.224;2023-06-14T13:56:05;29.80;50.40
16160;DHT22;8185;57.818;15.224;2023-06-14T13:58:34;31.20;49.10
16160;DHT22;8185;57.818;15.224;2023-06-14T14:01:02;32.40;48.40
16160;DHT22;8185;57.818;15.224;2023-06-14T14:03:34;32.30;48.50
16160;DHT22;8185;57.818;15.224;2023-06-14T14:06:05;32.80;46.40
16160;DHT22;8185;57.818;15.224;2023-06-14T14:08:34;33.40;45.40
16160;DHT22;8185;57.818;15.224;2023-06-14T14:11:03;33.30;47.10
16160;DHT22;8185;57.818;15.224;2023-06-14T14:13:31;34.10;45.10
16160;DHT22;8185;57.818;15.224;2023-06-14T14:16:00;34.40;45.90
16160;DHT22;8185;57.818;15.224;2023-06-14T14:18:29;34.80;44.80
16160;DHT22;8185;57.818;15.224;2023-06-14T14:20:57;33.10;44.10
16160;DHT22;8185;57.818;15.224;2023-06-14T14:23:25;31.20;45.30
16160;DHT22;8185;57.818;15.224;2023-06-14T14:25:52;31.00;47.70
16160;DHT22;8185;57.818;15.224;2023-06-14T14:28:20;30.40;48.50
16160;DHT22;8185;57.818;15.224;2023-06-14T14:30:49;29.70;49.50
16160;DHT22;8185;57.818;15.224;2023-06-14T14:33:18;30.60;49.70
16160;DHT22;8185;57.818;15.224;2023-06-14T14:35:46;31.40;48.20
16160;DHT22;8185;57.818;15.224;2023-06-14T14:38:14;33.50;47.20
16160;DHT22;8185;57.818;15.224;2023-06-14T14:40:42;33.90;46.10
16160;DHT22;8185;57.818;15.224;2023-06-14T14:43:11;32.70;46.40
16160;DHT22;8185;57.818;15.224;2023-06-14T14:45:39;31.90;46.90
16160;DHT22;8185;57.818;15.224;2023-06-14T14:48:07;31.00;46.90
16160;DHT22;8185;57.818;15.224;2023-06-14T14:50:36;32.10;48.40
16160;DHT22;8185;57.818;15.224;2023-06-14T14:53:05;33.70;47.50
16160;DHT22;8185;57.818;15.224;2023-06-14T14:55:32;34.50;46.10
16160;DHT22;8185;57.818;15.224;2023-06-14T14:58:02;34.40;46.10
16160;DHT22;8185;57.818;15.224;2023-06-14T15:00:31;33.90;44.20
16160;DHT22;8185;57.818;15.224;2023-06-14T15:02:59;33.10;45.20
16160;DHT22;8185;57.818;15.224;2023-06-14T15:05:27;33.70;46.70
16160;DHT22;8185;57.818;15.224;2023-06-14T15:07:57;34.70;46.30
16160;DHT22;8185;57.818;15.224;2023-06-14T15:10:25;34.50;44.90
16160;DHT22;8185;57.818;15.224;2023-06-14T15:12:52;34.10;44.70
16160;DHT22;8185;57.818;15.224;2023-06-14T15:15:21;33.50;44.20
16160;DHT22;8185;57.818;15.224;2023-06-14T15:17:49;32.70;44.80
16160;DHT22;8185;57.818;15.224;2023-06-14T15:20:18;32.40;46.20
16160;DHT22;8185;57.818;15.224;2023-06-14T15:22:46;31.60;45.80
16160;DHT22;8185;57.818;15.224;2023-06-14T15:25:15;31.00;45.30
16160;DHT22;8185;57.818;15.224;2023-06-14T15:27:43;32.00;46.50
16160;DHT22;8185;57.818;15.224;2023-06-14T15:30:12;32.90;46.60
16160;DHT22;8185;57.818;15.224;2023-06-14T15:32:40;34.10;44.90
16160;DHT22;8185;57.818;15.224;2023-06-14T15:35:08;33.60;43.80
16160;DHT22;8185;57.818;15.224;2023-06-14T15:37:36;33.40;43.10
16160;DHT22;8185;57.818;15.224;2023-06-14T15:40:05;33.40;44.50
16160;DHT22;8185;57.818;15.224;2023-06-14T15:42:35;34.00;43.70
16160;DHT22;8185;57.818;15.224;2023-06-14T15:45:04;34.30;44.60